createdAt,value
2022-10-01T00:00:29.332Z,6.22
2022-10-01T00:02:56.042Z,6.24
2022-10-01T00:05:22.696Z,6.21
2022-10-01T00:07:49.369Z,6.15
2022-10-01T00:10:16.393Z,6.21
2022-10-01T00:12:48.484Z,6.17
2022-10-01T00:15:16.876Z,6.17
2022-10-01T00:17:43.650Z,6.15
2022-10-01T00:20:14.705Z,6.12
2022-10-01T00:22:41.676Z,6.17
2022-10-01T00:25:08.447Z,6.18
2022-10-01T00:27:35.807Z,6.22
2022-10-01T00:30:07.076Z,6.24
2022-10-01T00:32:33.663Z,6.25
2022-10-01T00:35:00.816Z,6.39
2022-10-01T00:37:27.395Z,6.47
2022-10-01T00:39:54.081Z,6.52
2022-10-01T00:42:30.487Z,6.59
2022-10-01T00:44:58.932Z,6.70
2022-10-01T00:47:55.629Z,6.67
2022-10-01T00:50:32.971Z,6.76
2022-10-01T00:53:06.977Z,6.75
2022-10-01T00:55:37.558Z,6.85
2022-10-01T00:58:05.221Z,6.90
2022-10-01T01:00:32.328Z,6.96
2022-10-01T01:02:58.947Z,6.92
2022-10-01T01:05:25.572Z,6.92
2022-10-01T01:07:53.643Z,6.97
2022-10-01T01:10:29.874Z,6.97
2022-10-01T01:13:37.308Z,6.97
2022-10-01T01:16:11.600Z,7.00
2022-10-01T01:18:54.486Z,7.02
2022-10-01T01:21:34.892Z,7.07
2022-10-01T01:24:22.946Z,7.07
2022-10-01T01:26:55.397Z,7.08
2022-10-01T01:29:37.223Z,7.12
2022-10-01T01:32:14.790Z,7.13
2022-10-01T01:34:44.739Z,7.09
2022-10-01T01:37:15.685Z,7.05
2022-10-01T01:39:46.212Z,6.95
2022-10-01T01:42:41.481Z,6.89
2022-10-01T01:45:12.866Z,6.80
2022-10-01T01:47:42.062Z,6.75
2022-10-01T01:50:13.830Z,6.67
2022-10-01T01:52:41.243Z,6.57
2022-10-01T01:55:11.132Z,6.55
2022-10-01T01:57:43.816Z,6.45
2022-10-01T02:00:12.503Z,6.49
2022-10-01T02:02:43.898Z,6.41
2022-10-01T02:05:16.082Z,6.40
2022-10-01T02:07:49.495Z,6.41
2022-10-01T02:10:48.437Z,6.42
2022-10-01T02:13:33.505Z,6.35
2022-10-01T02:16:40.930Z,6.36
2022-10-01T02:19:16.532Z,6.31
2022-10-01T02:21:57.945Z,6.30
2022-10-01T02:24:40.602Z,6.32
2022-10-01T02:27:27.583Z,6.32
2022-10-01T02:29:57.777Z,6.26
2022-10-01T02:32:25.540Z,6.23
2022-10-01T02:34:54.020Z,6.22
2022-10-01T02:37:24.703Z,6.21
2022-10-01T02:39:57.472Z,6.17
2022-10-01T02:42:27.682Z,6.17
2022-10-01T02:44:56.809Z,6.18
2022-10-01T02:47:34.075Z,6.12
2022-10-01T02:50:06.201Z,6.15
2022-10-01T02:52:40.724Z,6.15
2022-10-01T02:55:12.292Z,6.10
2022-10-01T02:57:39.073Z,6.12
2022-10-01T03:00:09.369Z,6.14
2022-10-01T03:02:36.243Z,6.09
2022-10-01T03:05:02.935Z,6.10
2022-10-01T03:07:31.819Z,6.07
2022-10-01T03:09:58.405Z,6.06
2022-10-01T03:12:25.202Z,6.13
2022-10-01T03:14:54.215Z,6.12
2022-10-01T03:17:21.193Z,6.10
2022-10-01T03:19:47.798Z,6.13
2022-10-01T03:22:22.722Z,6.16
2022-10-01T03:24:53.457Z,6.10
2022-10-01T03:27:21.538Z,6.13
2022-10-01T03:29:48.738Z,6.15
2022-10-01T03:32:15.789Z,6.13
2022-10-01T03:34:42.452Z,6.19
2022-10-01T03:37:09.505Z,6.16
2022-10-01T03:39:36.127Z,6.20
2022-10-01T03:42:04.358Z,6.21
2022-10-01T03:44:30.940Z,6.24
2022-10-01T03:46:57.828Z,6.21
2022-10-01T03:49:24.425Z,6.26
2022-10-01T03:51:51.041Z,6.25
2022-10-01T03:54:18.047Z,6.27
2022-10-01T03:56:44.539Z,6.30
2022-10-01T03:59:11.326Z,6.23
2022-10-01T04:01:39.354Z,6.28
2022-10-01T04:04:06.790Z,6.30
2022-10-01T04:06:33.453Z,6.31
2022-10-01T04:08:59.961Z,6.32
2022-10-01T04:11:26.467Z,6.27
2022-10-01T04:13:53.069Z,6.30
2022-10-01T04:16:19.607Z,6.28
2022-10-01T04:18:46.095Z,6.29
2022-10-01T04:21:12.863Z,6.33
2022-10-01T04:23:39.343Z,6.34
2022-10-01T04:26:05.976Z,6.27
2022-10-01T04:28:32.491Z,6.34
2022-10-01T04:31:17.725Z,6.38
2022-10-01T04:33:44.927Z,6.41
2022-10-01T04:36:11.776Z,6.45
2022-10-01T04:38:38.299Z,6.41
2022-10-01T04:41:04.809Z,6.46
2022-10-01T04:43:31.274Z,6.50
2022-10-01T04:45:57.762Z,6.49
2022-10-01T04:48:24.248Z,6.54
2022-10-01T04:50:50.783Z,6.52
2022-10-01T04:53:17.285Z,6.55
2022-10-01T04:55:43.830Z,6.51
2022-10-01T04:58:10.288Z,6.50
2022-10-01T05:00:36.982Z,6.55
2022-10-01T05:03:03.558Z,6.58
2022-10-01T05:05:33.002Z,6.58
2022-10-01T05:07:59.523Z,6.58
2022-10-01T05:10:26.246Z,6.57
2022-10-01T05:12:52.772Z,6.52
2022-10-01T05:15:19.761Z,6.56
2022-10-01T05:17:48.287Z,6.57
2022-10-01T05:20:20.297Z,6.50
2022-10-01T05:22:48.983Z,6.55
2022-10-01T05:25:16.133Z,6.52
2022-10-01T05:27:42.784Z,6.51
2022-10-01T05:30:11.625Z,6.51
2022-10-01T05:32:38.587Z,6.56
2022-10-01T05:35:07.111Z,6.52
2022-10-01T05:37:34.196Z,6.62
2022-10-01T05:40:00.972Z,6.61
2022-10-01T05:42:27.721Z,6.59
2022-10-01T05:44:56.848Z,6.61
2022-10-01T05:47:23.491Z,6.65
2022-10-01T05:49:50.084Z,6.71
2022-10-01T05:52:16.998Z,6.78
2022-10-01T05:54:43.964Z,6.81
2022-10-01T05:57:11.131Z,6.82
2022-10-01T05:59:37.881Z,6.93
2022-10-01T06:02:09.129Z,7.00
2022-10-01T06:04:40.922Z,7.01
2022-10-01T06:07:07.850Z,7.10
2022-10-01T06:09:34.542Z,7.13
2022-10-01T06:12:01.245Z,7.20
2022-10-01T06:14:27.864Z,7.25
2022-10-01T06:16:55.020Z,7.23
2022-10-01T06:19:21.659Z,7.31
2022-10-01T06:21:48.452Z,7.31
2022-10-01T06:24:15.191Z,7.31
2022-10-01T06:26:41.980Z,7.34
2022-10-01T06:29:08.677Z,7.37
2022-10-01T06:31:38.646Z,7.42
2022-10-01T06:34:05.733Z,7.48
2022-10-01T06:36:34.165Z,7.52
2022-10-01T06:39:05.954Z,7.59
2022-10-01T06:41:34.670Z,7.69
2022-10-01T06:44:02.029Z,7.75
2022-10-01T06:46:28.916Z,7.85
2022-10-01T06:48:57.590Z,7.92
2022-10-01T06:51:44.027Z,7.97
2022-10-01T06:54:10.829Z,8.06
2022-10-01T06:56:37.593Z,8.07
2022-10-01T06:59:04.493Z,8.14
2022-10-01T07:01:32.964Z,8.23
2022-10-01T07:03:59.787Z,8.34
2022-10-01T07:06:26.485Z,8.35
2022-10-01T07:08:53.283Z,8.42
2022-10-01T07:11:20.492Z,8.36
2022-10-01T07:13:54.334Z,8.44
2022-10-01T07:16:21.422Z,8.53
2022-10-01T07:18:50.363Z,8.55
2022-10-01T07:21:17.056Z,8.60
2022-10-01T07:23:43.693Z,8.68
2022-10-01T07:26:11.734Z,8.73
2022-10-01T07:28:38.630Z,8.78
2022-10-01T07:31:12.225Z,8.78
2022-10-01T07:33:39.894Z,8.78
2022-10-01T07:36:10.910Z,8.82
2022-10-01T07:38:37.515Z,8.79
2022-10-01T07:41:04.731Z,8.79
2022-10-01T07:43:33.072Z,8.84
2022-10-01T07:46:00.274Z,8.81
2022-10-01T07:48:27.816Z,8.83
2022-10-01T07:50:54.341Z,8.79
2022-10-01T07:53:20.828Z,8.79
2022-10-01T07:55:47.288Z,8.80
2022-10-01T07:58:13.981Z,8.76
2022-10-01T08:00:40.587Z,8.73
2022-10-01T08:03:07.305Z,8.67
2022-10-01T08:05:35.966Z,8.62
2022-10-01T08:08:05.115Z,8.57
2022-10-01T08:10:34.867Z,8.59
2022-10-01T08:13:11.128Z,8.60
2022-10-01T08:15:37.674Z,8.62
2022-10-01T08:18:05.159Z,8.61
2022-10-01T08:20:34.984Z,8.62
2022-10-01T08:23:06.413Z,8.64
2022-10-01T08:25:33.507Z,8.66
2022-10-01T08:28:00.560Z,8.68
2022-10-01T08:30:30.846Z,8.71
2022-10-01T08:32:59.547Z,8.70
2022-10-01T08:35:27.790Z,8.71
2022-10-01T08:37:57.351Z,8.70
2022-10-01T08:40:27.653Z,8.66
2022-10-01T08:42:57.286Z,8.70
2022-10-01T08:45:29.008Z,8.78
2022-10-01T08:48:01.566Z,8.80
2022-10-01T08:50:53.056Z,8.81
2022-10-01T08:53:51.346Z,8.81
2022-10-01T08:56:40.747Z,8.79
2022-10-01T08:59:17.728Z,8.77
2022-10-01T09:01:44.581Z,8.79
2022-10-01T09:04:11.302Z,8.77
2022-10-01T09:06:38.522Z,8.86
2022-10-01T09:09:20.138Z,8.84
2022-10-01T09:12:03.372Z,8.84
2022-10-01T09:14:48.472Z,8.85
2022-10-01T09:17:34.476Z,8.87
2022-10-01T09:20:27.390Z,8.89
2022-10-01T09:23:02.908Z,8.89
2022-10-01T09:25:29.923Z,8.89
2022-10-01T09:28:16.121Z,8.92
2022-10-01T09:30:48.032Z,8.95
2022-10-01T09:33:20.192Z,8.97
2022-10-01T09:35:49.463Z,9.03
2022-10-01T09:38:20.069Z,9.06
2022-10-01T09:40:54.762Z,9.07
2022-10-01T09:43:23.450Z,9.14
2022-10-01T09:45:53.407Z,9.18
2022-10-01T09:48:41.495Z,9.17
2022-10-01T09:51:16.408Z,9.18
2022-10-01T09:53:57.784Z,9.23
2022-10-01T09:56:33.902Z,9.27
2022-10-01T09:59:07.660Z,9.26
2022-10-01T10:01:46.061Z,9.31
2022-10-01T10:04:20.173Z,9.34
2022-10-01T10:06:47.869Z,9.34
2022-10-01T10:09:22.418Z,9.35
2022-10-01T10:11:49.153Z,9.38
2022-10-01T10:14:29.391Z,9.41
2022-10-01T10:16:57.253Z,9.42
2022-10-01T10:19:27.859Z,9.41
2022-10-01T10:22:10.043Z,9.41
2022-10-01T10:24:37.473Z,9.45
2022-10-01T10:27:22.314Z,9.46
2022-10-01T10:29:48.951Z,9.40
2022-10-01T10:32:26.844Z,9.53
2022-10-01T10:35:02.739Z,9.49
2022-10-01T10:37:36.517Z,9.64
2022-10-01T10:40:08.290Z,9.70
2022-10-01T10:42:41.185Z,9.75
2022-10-01T10:45:17.556Z,9.79
2022-10-01T10:47:46.238Z,9.82
2022-10-01T10:50:36.085Z,9.87
2022-10-01T10:53:44.093Z,9.82
2022-10-01T10:56:22.545Z,9.81
2022-10-01T10:58:52.756Z,9.85
2022-10-01T11:01:28.630Z,9.88
2022-10-01T11:04:00.619Z,9.91
2022-10-01T11:06:28.051Z,9.90
2022-10-01T11:09:01.658Z,9.94
2022-10-01T11:11:34.312Z,9.96
2022-10-01T11:14:08.407Z,9.94
2022-10-01T11:17:21.994Z,9.97
2022-10-01T11:20:00.688Z,9.99
2022-10-01T11:22:52.602Z,10.04
2022-10-01T11:25:27.085Z,10.10
2022-10-01T11:28:10.687Z,10.18
2022-10-01T11:31:13.308Z,10.31
2022-10-01T11:34:13.847Z,10.48
2022-10-01T11:36:55.238Z,10.59
2022-10-01T11:39:26.009Z,10.70
2022-10-01T11:42:04.290Z,10.80
2022-10-01T11:44:34.723Z,10.85
2022-10-01T11:47:24.318Z,10.84
2022-10-01T11:49:57.062Z,10.81
2022-10-01T11:52:33.990Z,10.77
2022-10-01T11:55:24.452Z,10.77
2022-10-01T11:58:43.761Z,10.75
2022-10-01T12:01:35.748Z,10.69
2022-10-01T12:04:10.397Z,10.67
2022-10-01T12:06:49.524Z,10.72
2022-10-01T12:09:41.447Z,10.71
2022-10-01T12:12:15.647Z,10.72
2022-10-01T12:14:52.564Z,10.75
2022-10-01T12:17:22.541Z,10.80
2022-10-01T12:19:56.728Z,10.80
2022-10-01T12:22:32.809Z,10.75
2022-10-01T12:24:59.861Z,10.72
2022-10-01T12:27:42.098Z,10.77
2022-10-01T12:30:15.391Z,10.80
2022-10-01T12:32:55.972Z,10.86
2022-10-01T12:35:38.819Z,10.89
2022-10-01T12:38:16.965Z,10.93
2022-10-01T12:41:06.117Z,10.93
2022-10-01T12:44:03.595Z,10.97
2022-10-01T12:46:47.468Z,10.98
2022-10-01T12:49:22.414Z,11.05
2022-10-01T12:52:14.962Z,11.09
2022-10-01T12:55:14.853Z,11.09
2022-10-01T12:58:03.222Z,11.16
2022-10-01T13:00:40.787Z,11.18
2022-10-01T13:04:08.825Z,11.25
2022-10-01T13:06:51.899Z,11.32
2022-10-01T13:09:45.362Z,11.37
2022-10-01T13:12:56.675Z,11.45
2022-10-01T13:15:32.710Z,11.55
2022-10-01T13:18:08.515Z,11.55
2022-10-01T13:20:51.795Z,11.55
2022-10-01T13:23:33.468Z,11.55
2022-10-01T13:26:27.927Z,11.59
2022-10-01T13:29:03.804Z,11.64
2022-10-01T13:31:39.954Z,11.68
2022-10-01T13:34:42.336Z,11.69
2022-10-01T13:37:20.112Z,11.64
2022-10-01T13:39:47.569Z,11.64
2022-10-01T13:42:24.019Z,11.69
2022-10-01T13:44:59.907Z,11.77
2022-10-01T13:47:27.944Z,11.79
2022-10-01T13:49:58.059Z,11.77
2022-10-01T13:52:25.398Z,11.72
2022-10-01T13:54:57.246Z,11.76
2022-10-01T13:57:33.679Z,11.90
2022-10-01T14:00:23.071Z,11.84
2022-10-01T14:03:05.983Z,11.95
2022-10-01T14:05:44.786Z,11.97
2022-10-01T14:08:25.792Z,11.98
2022-10-01T14:11:23.086Z,11.89
2022-10-01T14:14:12.697Z,11.83
2022-10-01T14:16:45.796Z,11.74
2022-10-01T14:19:21.569Z,11.85
2022-10-01T14:21:53.767Z,11.90
2022-10-01T14:24:32.854Z,11.84
2022-10-01T14:27:08.717Z,11.89
2022-10-01T14:29:53.402Z,11.89
2022-10-01T14:32:50.950Z,11.92
2022-10-01T14:35:23.640Z,11.87
2022-10-01T14:37:59.986Z,11.86
2022-10-01T14:40:36.764Z,11.83
2022-10-01T14:43:19.603Z,11.87
2022-10-01T14:45:50.843Z,11.79
2022-10-01T14:48:17.411Z,11.75
2022-10-01T14:50:49.307Z,11.74
2022-10-01T14:53:18.992Z,11.80
2022-10-01T14:55:48.544Z,11.78
2022-10-01T14:58:20.425Z,11.83
2022-10-01T15:00:52.693Z,11.84
2022-10-01T15:03:22.540Z,11.90
2022-10-01T15:05:50.450Z,11.91
2022-10-01T15:08:38.108Z,11.94
2022-10-01T15:11:43.419Z,11.97
2022-10-01T15:14:20.280Z,11.99
2022-10-01T15:16:47.724Z,11.97
2022-10-01T15:19:20.619Z,11.96
2022-10-01T15:21:54.734Z,12.01
2022-10-01T15:24:41.449Z,11.99
2022-10-01T15:27:12.728Z,11.98
2022-10-01T15:29:45.422Z,11.94
2022-10-01T15:32:18.846Z,11.92
2022-10-01T15:34:53.517Z,11.93
2022-10-01T15:37:40.406Z,12.02
2022-10-01T15:40:20.945Z,12.07
2022-10-01T15:43:11.765Z,12.07
2022-10-01T15:45:38.952Z,12.08
2022-10-01T15:48:08.637Z,12.04
2022-10-01T15:50:38.544Z,12.05
2022-10-01T15:53:17.979Z,12.03
2022-10-01T15:55:56.688Z,12.08
2022-10-01T15:58:27.143Z,12.07
2022-10-01T16:01:04.850Z,12.12
2022-10-01T16:03:46.122Z,12.18
2022-10-01T16:06:27.237Z,12.21
2022-10-01T16:09:11.955Z,12.26
2022-10-01T16:11:59.532Z,12.21
2022-10-01T16:14:59.040Z,12.19
2022-10-01T16:17:48.903Z,12.16
2022-10-01T16:20:15.377Z,12.13
2022-10-01T16:22:46.360Z,12.12
2022-10-01T16:25:17.120Z,12.15
2022-10-01T16:27:52.979Z,12.17
2022-10-01T16:30:27.599Z,12.24
2022-10-01T16:32:58.892Z,12.26
2022-10-01T16:35:35.867Z,12.30
2022-10-01T16:38:08.533Z,12.26
2022-10-01T16:40:41.959Z,12.33
2022-10-01T16:43:18.894Z,12.36
2022-10-01T16:45:45.959Z,12.34
2022-10-01T16:48:19.693Z,12.32
2022-10-01T16:50:52.060Z,12.41
2022-10-01T16:53:19.110Z,12.42
2022-10-01T16:55:47.299Z,12.43
2022-10-01T16:58:14.646Z,12.39
2022-10-01T17:00:45.003Z,12.47
2022-10-01T17:03:17.720Z,12.43
2022-10-01T17:05:48.019Z,12.41
2022-10-01T17:08:15.874Z,12.41
2022-10-01T17:10:47.679Z,12.44
2022-10-01T17:13:15.443Z,12.41
2022-10-01T17:15:43.202Z,12.41
2022-10-01T17:18:10.479Z,12.42
2022-10-01T17:20:40.368Z,12.44
2022-10-01T17:23:12.682Z,12.46
2022-10-01T17:25:42.452Z,12.51
2022-10-01T17:28:16.399Z,12.49
2022-10-01T17:30:46.568Z,12.50
2022-10-01T17:33:15.365Z,12.58
2022-10-01T17:35:44.538Z,12.72
2022-10-01T17:38:13.213Z,12.69
2022-10-01T17:40:44.391Z,12.68
2022-10-01T17:43:12.672Z,12.70
2022-10-01T17:45:39.935Z,12.60
2022-10-01T17:48:06.793Z,12.59
2022-10-01T17:50:33.547Z,12.56
2022-10-01T17:53:03.662Z,12.53
2022-10-01T17:55:31.301Z,12.52
2022-10-01T17:58:02.692Z,12.56
2022-10-01T18:00:29.621Z,12.54
2022-10-01T18:02:56.690Z,12.51
2022-10-01T18:05:23.792Z,12.44
2022-10-01T18:07:53.852Z,12.40
2022-10-01T18:10:28.315Z,12.40
2022-10-01T18:12:55.167Z,12.48
2022-10-01T18:15:24.233Z,12.45
2022-10-01T18:18:48.534Z,12.41
2022-10-01T18:20:43.447Z,12.44
2022-10-01T18:23:10.019Z,12.42
2022-10-01T18:25:38.610Z,12.44
2022-10-01T18:28:05.591Z,12.36
2022-10-01T18:30:34.183Z,12.37
2022-10-01T18:33:03.321Z,12.30
2022-10-01T18:35:34.842Z,12.30
2022-10-01T18:38:28.337Z,12.24
2022-10-01T18:40:59.990Z,12.32
2022-10-01T18:43:26.826Z,12.30
2022-10-01T18:46:19.299Z,12.31
2022-10-01T18:49:31.548Z,12.32
2022-10-01T18:52:36.284Z,12.40
2022-10-01T18:55:21.482Z,12.44
2022-10-01T18:57:51.390Z,12.48
2022-10-01T19:00:25.423Z,12.58
2022-10-01T19:03:10.266Z,12.57
2022-10-01T19:05:55.526Z,12.58
2022-10-01T19:08:29.187Z,12.52
2022-10-01T19:11:04.274Z,12.53
2022-10-01T19:14:03.275Z,12.51
2022-10-01T19:16:47.834Z,12.49
2022-10-01T19:19:28.818Z,12.52
2022-10-01T19:22:16.060Z,12.49
2022-10-01T19:25:19.638Z,12.50
2022-10-01T19:28:14.288Z,12.54
2022-10-01T19:30:52.741Z,12.51
2022-10-01T19:33:21.835Z,12.44
2022-10-01T19:35:57.278Z,12.47
2022-10-01T19:38:38.032Z,12.47
2022-10-01T19:41:16.089Z,12.55
2022-10-01T19:43:55.539Z,12.50
2022-10-01T19:46:29.230Z,12.46
2022-10-01T19:49:25.966Z,12.34
2022-10-01T19:52:01.503Z,12.20
2022-10-01T19:54:34.093Z,12.17
2022-10-01T19:57:16.249Z,12.10
2022-10-01T19:59:42.882Z,12.11
2022-10-01T20:02:32.131Z,12.04
2022-10-01T20:05:04.736Z,11.99
2022-10-01T20:07:55.564Z,12.05
2022-10-01T20:10:36.107Z,12.09
2022-10-01T20:13:25.772Z,12.11
2022-10-01T20:16:13.325Z,12.29
2022-10-01T20:19:13.864Z,12.31
2022-10-01T20:22:02.300Z,12.45
2022-10-01T20:24:44.109Z,12.47
2022-10-01T20:27:20.099Z,12.50
2022-10-01T20:30:05.745Z,12.50
2022-10-01T20:32:50.948Z,12.48
2022-10-01T20:35:24.519Z,12.48
2022-10-01T20:38:00.282Z,12.45
2022-10-01T20:40:32.986Z,12.48
2022-10-01T20:43:06.233Z,12.52
2022-10-01T20:45:38.739Z,12.51
2022-10-01T20:48:29.539Z,12.51
2022-10-01T20:51:03.289Z,12.58
2022-10-01T20:53:30.402Z,12.63
2022-10-01T20:56:09.842Z,12.63
2022-10-01T20:59:02.053Z,12.63
2022-10-01T21:01:33.219Z,12.58
2022-10-01T21:04:29.215Z,12.49
2022-10-01T21:07:01.942Z,12.48
2022-10-01T21:09:40.719Z,12.58
2022-10-01T21:12:15.263Z,12.58
2022-10-01T21:14:52.849Z,12.53
2022-10-01T21:17:41.724Z,12.37
2022-10-01T21:20:26.866Z,12.23
2022-10-01T21:23:01.517Z,12.05
2022-10-01T21:25:49.818Z,12.04
2022-10-01T21:28:52.233Z,12.03
2022-10-01T21:31:32.418Z,12.00
2022-10-01T21:34:03.126Z,11.94
2022-10-01T21:36:51.604Z,11.85
2022-10-01T21:39:33.132Z,11.78
2022-10-01T21:42:02.887Z,11.67
2022-10-01T21:45:08.986Z,11.66
2022-10-01T21:48:00.850Z,11.72
2022-10-01T21:50:39.473Z,11.73
2022-10-01T21:53:15.003Z,11.86
2022-10-01T21:56:00.238Z,11.82
2022-10-01T21:58:48.831Z,11.82
2022-10-01T22:01:25.226Z,11.81
2022-10-01T22:04:13.117Z,11.91
2022-10-01T22:06:52.626Z,11.86
2022-10-01T22:09:27.588Z,11.85
2022-10-01T22:11:58.762Z,11.86
2022-10-01T22:14:27.171Z,11.86
2022-10-01T22:17:00.398Z,11.93
2022-10-01T22:19:37.789Z,11.93
2022-10-01T22:22:30.200Z,12.01
2022-10-01T22:25:00.842Z,12.01
2022-10-01T22:27:33.299Z,12.09
2022-10-01T22:29:59.696Z,12.16
2022-10-01T22:32:31.336Z,12.15
2022-10-01T22:35:03.181Z,12.15
2022-10-01T22:37:55.184Z,12.09
2022-10-01T22:40:27.326Z,12.04
2022-10-01T22:43:05.440Z,12.03
2022-10-01T22:45:41.050Z,12.03
2022-10-01T22:48:29.245Z,12.06
2022-10-01T22:51:01.874Z,12.04
2022-10-01T22:53:50.791Z,11.98
2022-10-01T22:56:29.884Z,11.92
2022-10-01T22:59:11.135Z,11.82
2022-10-01T23:02:02.279Z,11.70
2022-10-01T23:04:41.142Z,11.66
2022-10-01T23:07:20.603Z,11.61
2022-10-01T23:10:15.339Z,11.50
2022-10-01T23:13:00.475Z,11.45
2022-10-01T23:15:52.998Z,11.38
2022-10-01T23:18:38.062Z,11.34
2022-10-01T23:21:55.340Z,11.37
2022-10-01T23:24:49.501Z,11.36
2022-10-01T23:27:27.207Z,11.34
2022-10-01T23:30:05.276Z,11.30
2022-10-01T23:32:47.331Z,11.23
2022-10-01T23:35:19.617Z,11.18
2022-10-01T23:38:01.534Z,11.14
2022-10-01T23:40:33.055Z,11.06
2022-10-01T23:43:31.035Z,11.04
2022-10-01T23:46:27.674Z,11.06
2022-10-01T23:49:14.644Z,11.08
2022-10-01T23:52:19.297Z,11.07
2022-10-01T23:54:55.262Z,11.07
2022-10-01T23:57:39.299Z,11.13
